Time;durP1;ratioP1;P1;durP2;ratioP2;P2;SDS_P1;SDS_P2;PMS_P1;PMS_P2;Temp;Humidity;BMP_temperature;BMP_pressure;BME280_temperature;BME280_humidity;BME280_pressure;Samples;Min_cycle;Max_cycle;Signal;HPM_P1;HPM_P2
2022/05/26 00:02:27;;;;;;;22.63;21.33;;;;;;;;;;5113762;28;20448;-82
2022/05/26 00:04:54;;;;;;;22.80;21.40;;;;;;;;;;5113455;28;20986;-82
2022/05/26 00:07:22;;;;;;;23.57;21.90;;;;;;;;;;5113973;28;20510;-82
2022/05/26 00:09:50;;;;;;;21.80;20.60;;;;;;;;;;5113853;28;20404;-81
2022/05/26 00:12:19;;;;;;;22.20;21.00;;;;;;;;;;5113935;28;20915;-83
2022/05/26 00:14:46;;;;;;;22.33;21.13;;;;;;;;;;5113895;28;20480;-82
2022/05/26 00:17:14;;;;;;;22.30;21.07;;;;;;;;;;5113867;28;20455;-83
2022/05/26 00:19:42;;;;;;;23.57;22.20;;;;;;;;;;5113767;28;20419;-82
2022/05/26 00:22:09;;;;;;;21.87;20.67;;;;;;;;;;5113469;28;20497;-82
2022/05/26 00:24:37;;;;;;;23.53;22.20;;;;;;;;;;5114115;28;20418;-81
2022/05/26 00:27:06;;;;;;;22.77;21.47;;;;;;;;;;5113362;28;20420;-82
2022/05/26 00:29:34;;;;;;;23.20;21.83;;;;;;;;;;5113861;28;20439;-82
2022/05/26 00:32:01;;;;;;;23.03;21.77;;;;;;;;;;5113504;28;20504;-82
2022/05/26 00:34:29;;;;;;;23.80;22.30;;;;;;;;;;5113072;28;20411;-80
2022/05/26 00:36:56;;;;;;;23.40;22.10;;;;;;;;;;5113280;28;20884;-82
2022/05/26 00:39:25;;;;;;;24.47;23.00;;;;;;;;;;5113159;28;20428;-82
2022/05/26 00:41:54;;;;;;;23.17;21.80;;;;;;;;;;5113314;28;20414;-82
2022/05/26 00:44:23;;;;;;;24.00;22.60;;;;;;;;;;5113164;28;20414;-82
2022/05/26 00:46:53;;;;;;;23.30;22.00;;;;;;;;;;5113327;28;20453;-83
2022/05/26 00:49:23;;;;;;;25.93;24.10;;;;;;;;;;5113262;28;20468;-82
2022/05/26 00:51:50;;;;;;;22.60;21.30;;;;;;;;;;5113356;28;20416;-82
2022/05/26 00:54:20;;;;;;;24.60;23.07;;;;;;;;;;5113501;28;20442;-82
2022/05/26 00:56:51;;;;;;;24.33;22.83;;;;;;;;;;5113087;28;20415;-82
2022/05/26 00:59:22;;;;;;;23.80;22.40;;;;;;;;;;5113438;28;20422;-82
2022/05/26 01:01:51;;;;;;;23.83;22.53;;;;;;;;;;5113309;28;20418;-82
2022/05/26 01:04:19;;;;;;;23.43;21.97;;;;;;;;;;5112398;28;20516;-82
2022/05/26 01:06:49;;;;;;;23.80;22.20;;;;;;;;;;5113602;28;20439;-81
2022/05/26 01:09:16;;;;;;;23.13;21.87;;;;;;;;;;5113184;28;20435;-82
2022/05/26 01:11:45;;;;;;;23.23;21.93;;;;;;;;;;5113058;28;20926;-82
2022/05/26 01:14:14;;;;;;;23.27;21.77;;;;;;;;;;5095328;28;20456;-82
2022/05/26 01:16:44;;;;;;;23.30;22.00;;;;;;;;;;5112914;28;20419;-82
2022/05/26 01:19:19;;;;;;;25.20;23.60;;;;;;;;;;5113185;28;20520;-82
2022/05/26 01:21:48;;;;;;;24.07;22.67;;;;;;;;;;5113802;28;20436;-83
2022/05/26 01:24:40;;;;;;;23.83;22.43;;;;;;;;;;5113352;28;20408;-82
2022/05/26 01:27:23;;;;;;;24.97;23.40;;;;;;;;;;5113065;28;20820;-81
2022/05/26 01:30:05;;;;;;;23.77;22.30;;;;;;;;;;5113044;28;20431;-82
2022/05/26 01:32:37;;;;;;;23.07;21.67;;;;;;;;;;5112805;28;20845;-81
2022/05/26 01:35:09;;;;;;;23.23;21.90;;;;;;;;;;5112973;28;20419;-82
2022/05/26 01:37:41;;;;;;;23.53;22.13;;;;;;;;;;5112925;28;20455;-82
2022/05/26 01:40:12;;;;;;;23.70;22.40;;;;;;;;;;5112487;28;20410;-83
2022/05/26 01:42:41;;;;;;;22.90;21.50;;;;;;;;;;5112595;28;20436;-82
2022/05/26 01:45:12;;;;;;;22.40;21.07;;;;;;;;;;5112617;28;20414;-82
2022/05/26 01:47:43;;;;;;;22.53;21.17;;;;;;;;;;5112557;28;20412;-82
2022/05/26 01:50:16;;;;;;;23.13;21.83;;;;;;;;;;5113767;28;20450;-82
2022/05/26 01:52:47;;;;;;;23.40;22.00;;;;;;;;;;5116633;28;20418;-82
2022/05/26 01:55:17;;;;;;;22.57;21.37;;;;;;;;;;5116555;28;20424;-82
2022/05/26 01:57:47;;;;;;;22.47;21.27;;;;;;;;;;5116156;28;20484;-82
2022/05/26 02:00:16;;;;;;;22.53;21.23;;;;;;;;;;5116114;28;20435;-83
2022/05/26 02:02:49;;;;;;;22.43;21.23;;;;;;;;;;5097720;28;20436;-82
2022/05/26 02:05:18;;;;;;;24.10;22.63;;;;;;;;;;5116421;28;20407;-82
2022/05/26 02:07:47;;;;;;;24.33;22.93;;;;;;;;;;5116120;28;20403;-82
2022/05/26 02:10:16;;;;;;;24.53;23.03;;;;;;;;;;5115934;28;20440;-82
2022/05/26 02:12:47;;;;;;;23.07;21.70;;;;;;;;;;5097662;28;20468;-83
2022/05/26 02:15:16;;;;;;;25.00;23.60;;;;;;;;;;5116377;28;20403;-82
2022/05/26 02:17:46;;;;;;;24.53;23.13;;;;;;;;;;5115766;28;20468;-82
2022/05/26 02:20:15;;;;;;;24.40;22.80;;;;;;;;;;5116071;28;20419;-83
2022/05/26 02:22:49;;;;;;;23.27;21.97;;;;;;;;;;5116237;28;20407;-81
2022/05/26 02:25:18;;;;;;;23.10;21.77;;;;;;;;;;5115780;28;20448;-82
2022/05/26 02:27:45;;;;;;;24.53;22.93;;;;;;;;;;5115866;28;20431;-82
2022/05/26 02:30:13;;;;;;;23.80;22.27;;;;;;;;;;5115867;28;20411;-81
2022/05/26 02:32:42;;;;;;;23.67;22.37;;;;;;;;;;5115433;28;20896;-82
2022/05/26 02:35:13;;;;;;;24.90;23.40;;;;;;;;;;5115674;28;20463;-81
2022/05/26 02:37:41;;;;;;;24.83;23.23;;;;;;;;;;5115632;28;20469;-82
2022/05/26 02:40:09;;;;;;;25.33;23.73;;;;;;;;;;5115641;28;20437;-82
2022/05/26 02:42:37;;;;;;;24.80;23.30;;;;;;;;;;5115354;28;20464;-82
2022/05/26 02:45:05;;;;;;;24.23;22.83;;;;;;;;;;5115303;28;20427;-82
2022/05/26 02:47:38;;;;;;;23.07;21.67;;;;;;;;;;5115811;28;20411;-82
2022/05/26 02:50:24;;;;;;;24.60;23.00;;;;;;;;;;5115755;28;20440;-82
2022/05/26 02:52:59;;;;;;;24.13;22.73;;;;;;;;;;5105215;28;20815;-82
2022/05/26 02:55:31;;;;;;;23.47;22.07;;;;;;;;;;5115412;28;20407;-82
2022/05/26 02:58:03;;;;;;;23.77;22.37;;;;;;;;;;5115510;28;20473;-82
2022/05/26 03:00:32;;;;;;;25.43;23.60;;;;;;;;;;5114920;28;20437;-82
2022/05/26 03:03:01;;;;;;;24.57;23.07;;;;;;;;;;5113672;28;20861;-83
2022/05/26 03:05:32;;;;;;;24.70;23.20;;;;;;;;;;5114878;28;20757;-82
2022/05/26 03:08:02;;;;;;;24.27;22.87;;;;;;;;;;5115230;28;20777;-82
2022/05/26 03:10:30;;;;;;;25.40;23.70;;;;;;;;;;5115012;28;20429;-82
2022/05/26 03:12:59;;;;;;;22.13;20.90;;;;;;;;;;5114993;28;20440;-82
2022/05/26 03:15:27;;;;;;;24.33;22.83;;;;;;;;;;5115082;28;21093;-82
2022/05/26 03:17:54;;;;;;;25.97;24.33;;;;;;;;;;5114461;28;20472;-82
2022/05/26 03:20:21;;;;;;;27.33;25.53;;;;;;;;;;5114563;28;20441;-82
2022/05/26 03:22:49;;;;;;;24.80;23.30;;;;;;;;;;5114543;28;20432;-82
2022/05/26 03:25:18;;;;;;;25.90;24.27;;;;;;;;;;5114569;28;20867;-82
2022/05/26 03:27:45;;;;;;;24.57;22.87;;;;;;;;;;5114352;28;20803;-82
2022/05/26 03:30:13;;;;;;;27.10;25.17;;;;;;;;;;5114550;28;20440;-82
2022/05/26 03:32:41;;;;;;;26.77;24.87;;;;;;;;;;5114587;28;20407;-82
2022/05/26 03:40:56;;;;;;;28.03;26.10;;;;;;;;;;5114496;28;20391;-82
2022/05/26 03:43:25;;;;;;;27.70;25.63;;;;;;;;;;5114523;28;20431;-82
2022/05/26 03:45:53;;;;;;;27.70;25.67;;;;;;;;;;5114123;28;20415;-82
2022/05/26 03:48:20;;;;;;;27.60;25.47;;;;;;;;;;5114382;28;20536;-82
2022/05/26 03:50:47;;;;;;;22.40;20.87;;;;;;;;;;5114258;28;20445;-82
2022/05/26 03:53:17;;;;;;;26.90;25.10;;;;;;;;;;5114241;28;20423;-82
2022/05/26 03:55:46;;;;;;;27.43;25.73;;;;;;;;;;5114227;28;20411;-82
2022/05/26 03:58:13;;;;;;;27.43;25.17;;;;;;;;;;5114137;28;20459;-81
2022/05/26 04:00:41;;;;;;;27.87;25.63;;;;;;;;;;5114055;28;20404;-82
2022/05/26 04:03:09;;;;;;;26.60;24.80;;;;;;;;;;5114097;28;20450;-81
2022/05/26 04:05:36;;;;;;;28.10;26.20;;;;;;;;;;5114248;28;20808;-82
2022/05/26 04:08:04;;;;;;;27.73;25.83;;;;;;;;;;5114185;28;20418;-82
2022/05/26 04:10:31;;;;;;;27.90;25.90;;;;;;;;;;5095472;28;20419;-82
2022/05/26 04:13:00;;;;;;;28.30;26.20;;;;;;;;;;5113648;28;20407;-82
2022/05/26 04:15:27;;;;;;;29.57;27.47;;;;;;;;;;5113564;28;20415;-82
2022/05/26 04:17:55;;;;;;;28.60;26.40;;;;;;;;;;5113894;28;20440;-82
2022/05/26 04:20:23;;;;;;;30.63;28.33;;;;;;;;;;5113534;28;20415;-81
2022/05/26 04:22:51;;;;;;;27.37;25.13;;;;;;;;;;5113699;28;20439;-82
2022/05/26 04:25:20;;;;;;;27.47;25.60;;;;;;;;;;5113769;28;20451;-82
2022/05/26 04:27:47;;;;;;;27.83;26.03;;;;;;;;;;5113408;28;20448;-81
2022/05/26 04:30:16;;;;;;;28.87;26.83;;;;;;;;;;5113561;28;20403;-82
2022/05/26 04:32:44;;;;;;;28.33;26.23;;;;;;;;;;5113171;28;20437;-82
2022/05/26 04:35:12;;;;;;;28.60;26.60;;;;;;;;;;5113312;28;20411;-82
2022/05/26 04:37:39;;;;;;;25.53;23.83;;;;;;;;;;5113490;28;20819;-82
2022/05/26 04:40:08;;;;;;;29.13;27.00;;;;;;;;;;5112933;28;20499;-82
2022/05/26 04:42:35;;;;;;;27.63;25.47;;;;;;;;;;5113516;28;20898;-82
2022/05/26 04:45:03;;;;;;;27.97;25.87;;;;;;;;;;5113243;28;20407;-80
2022/05/26 04:47:31;;;;;;;28.10;26.20;;;;;;;;;;5113385;28;20448;-82
2022/05/26 04:49:59;;;;;;;27.43;25.50;;;;;;;;;;5113091;28;20415;-82
2022/05/26 04:52:26;;;;;;;29.20;27.00;;;;;;;;;;5113358;28;20444;-82
2022/05/26 04:54:54;;;;;;;28.47;26.57;;;;;;;;;;5113037;28;20441;-82
2022/05/26 04:57:22;;;;;;;29.40;27.10;;;;;;;;;;5113244;28;20424;-82
2022/05/26 04:59:50;;;;;;;29.10;27.00;;;;;;;;;;5094756;28;21001;-81
2022/05/26 05:02:18;;;;;;;27.67;25.77;;;;;;;;;;5113419;28;20438;-82
2022/05/26 05:04:48;;;;;;;26.50;24.70;;;;;;;;;;5112627;28;20485;-82
2022/05/26 05:07:17;;;;;;;27.00;25.10;;;;;;;;;;5112942;28;20877;-82
2022/05/26 05:09:45;;;;;;;24.93;23.07;;;;;;;;;;5094580;28;20476;-82
2022/05/26 05:12:13;;;;;;;26.83;24.87;;;;;;;;;;5094693;28;20419;-81
2022/05/26 05:14:43;;;;;;;26.80;25.00;;;;;;;;;;5112747;28;20433;-81
2022/05/26 05:17:10;;;;;;;25.97;24.00;;;;;;;;;;5112860;28;20411;-82
2022/05/26 05:19:38;;;;;;;25.40;23.60;;;;;;;;;;5095079;28;20484;-81
2022/05/26 05:22:09;;;;;;;26.07;24.37;;;;;;;;;;5094523;28;20831;-82
2022/05/26 05:24:40;;;;;;;26.40;24.40;;;;;;;;;;5113785;28;20419;-82
2022/05/26 05:27:11;;;;;;;27.07;25.23;;;;;;;;;;5116771;28;20930;-81
2022/05/26 05:29:39;;;;;;;28.43;26.30;;;;;;;;;;5116718;28;20399;-81
2022/05/26 05:32:09;;;;;;;26.43;24.23;;;;;;;;;;5116901;28;20480;-82
2022/05/26 05:34:39;;;;;;;26.17;24.47;;;;;;;;;;5116608;28;20894;-82
2022/05/26 05:37:07;;;;;;;23.57;22.17;;;;;;;;;;5116908;28;20436;-82
2022/05/26 05:39:35;;;;;;;26.73;24.93;;;;;;;;;;5116452;28;20459;-81
2022/05/26 05:42:03;;;;;;;25.97;24.07;;;;;;;;;;5098617;28;20918;-81
2022/05/26 05:44:31;;;;;;;27.37;25.57;;;;;;;;;;5116361;28;20815;-81
2022/05/26 05:46:58;;;;;;;26.37;24.57;;;;;;;;;;5116422;28;20410;-81
2022/05/26 05:49:26;;;;;;;24.90;23.27;;;;;;;;;;5116322;28;20407;-81
2022/05/26 05:51:54;;;;;;;24.07;22.57;;;;;;;;;;5098186;28;20501;-82
2022/05/26 05:54:23;;;;;;;26.20;24.50;;;;;;;;;;5116494;28;20410;-82
2022/05/26 05:56:51;;;;;;;25.37;23.50;;;;;;;;;;5116389;28;20422;-83
2022/05/26 05:59:18;;;;;;;25.60;23.97;;;;;;;;;;5116225;28;20438;-82
2022/05/26 06:01:46;;;;;;;25.27;23.40;;;;;;;;;;5116150;28;20443;-83
2022/05/26 06:04:13;;;;;;;25.90;23.97;;;;;;;;;;5115904;28;20453;-82
2022/05/26 06:06:42;;;;;;;25.83;23.87;;;;;;;;;;5115981;28;20419;-82
2022/05/26 06:09:10;;;;;;;25.60;23.90;;;;;;;;;;5116071;28;20764;-81
2022/05/26 06:11:39;;;;;;;25.10;23.30;;;;;;;;;;5116022;28;20433;-81
2022/05/26 06:14:06;;;;;;;25.20;23.37;;;;;;;;;;5116302;28;20441;-82
2022/05/26 06:16:33;;;;;;;25.33;23.50;;;;;;;;;;5097597;28;20444;-82
2022/05/26 06:19:01;;;;;;;26.00;24.37;;;;;;;;;;5115904;28;20815;-82
2022/05/26 06:21:28;;;;;;;25.57;23.80;;;;;;;;;;5116189;28;20419;-82
2022/05/26 06:23:57;;;;;;;25.47;23.30;;;;;;;;;;5116087;28;20411;-82
2022/05/26 06:26:25;;;;;;;22.83;21.43;;;;;;;;;;5116107;28;20457;-82
2022/05/26 06:31:39;;;;;;;25.77;23.87;;;;;;;;;;5115880;28;20418;-81
2022/05/26 06:39:36;;;;;;;25.00;23.03;;;;;;;;;;5115494;28;20801;-82
2022/05/26 06:42:07;;;;;;;25.33;23.50;;;;;;;;;;5097230;28;20965;-82
2022/05/26 06:44:38;;;;;;;26.20;24.17;;;;;;;;;;5115631;28;20761;-82
2022/05/26 06:47:07;;;;;;;23.50;21.90;;;;;;;;;;5115241;28;20468;-81
2022/05/26 06:49:35;;;;;;;23.67;21.93;;;;;;;;;;5115390;28;20436;-82
2022/05/26 06:52:02;;;;;;;22.20;20.40;;;;;;;;;;5115569;28;20435;-81
2022/05/26 06:54:33;;;;;;;25.37;23.57;;;;;;;;;;5115320;28;20433;-81
2022/05/26 06:57:01;;;;;;;24.77;22.97;;;;;;;;;;5115274;28;20440;-82
2022/05/26 06:59:28;;;;;;;27.33;24.83;;;;;;;;;;5115213;28;20476;-82
2022/05/26 07:01:57;;;;;;;24.83;23.00;;;;;;;;;;5114971;28;20440;-84
2022/05/26 07:04:25;;;;;;;23.60;21.67;;;;;;;;;;5115401;28;20568;-84
2022/05/26 07:06:53;;;;;;;23.50;21.80;;;;;;;;;;5096890;28;20419;-84
2022/05/26 07:09:20;;;;;;;24.43;22.53;;;;;;;;;;5115334;28;20412;-84
2022/05/26 07:11:47;;;;;;;22.87;21.27;;;;;;;;;;5115108;28;20437;-83
2022/05/26 07:14:15;;;;;;;23.13;21.37;;;;;;;;;;5115766;28;20410;-89
2022/05/26 07:16:44;;;;;;;25.60;23.57;;;;;;;;;;5115563;28;20521;-83
2022/05/26 07:19:14;;;;;;;23.17;21.57;;;;;;;;;;5115117;28;20451;-84
2022/05/26 07:21:43;;;;;;;23.73;22.13;;;;;;;;;;5115391;28;20439;-83
2022/05/26 07:24:10;;;;;;;22.30;20.90;;;;;;;;;;5114674;28;20457;-83
2022/05/26 07:26:38;;;;;;;24.07;22.27;;;;;;;;;;5114814;28;20948;-84
2022/05/26 07:29:06;;;;;;;23.77;22.10;;;;;;;;;;5114938;28;20436;-84
2022/05/26 07:31:33;;;;;;;23.70;22.20;;;;;;;;;;5114730;28;20446;-83
2022/05/26 07:34:01;;;;;;;24.97;22.50;;;;;;;;;;5115151;28;20440;-84
2022/05/26 07:42:00;;;;;;;24.70;22.83;;;;;;;;;;5114578;28;20410;-87
2022/05/26 07:44:29;;;;;;;23.67;22.03;;;;;;;;;;5114980;28;20439;-83
2022/05/26 07:46:56;;;;;;;23.43;21.93;;;;;;;;;;5115030;28;20408;-85
2022/05/26 07:49:24;;;;;;;23.77;22.23;;;;;;;;;;5114064;28;20435;-85
2022/05/26 07:51:53;;;;;;;22.70;21.27;;;;;;;;;;5114762;28;20451;-84
2022/05/26 07:54:20;;;;;;;24.70;23.00;;;;;;;;;;5114651;28;20440;-84
2022/05/26 07:56:47;;;;;;;24.57;22.87;;;;;;;;;;5096346;28;20421;-84
2022/05/26 07:59:15;;;;;;;24.63;23.03;;;;;;;;;;5073807;28;20512;-80
2022/05/26 08:01:42;;;;;;;25.27;23.40;;;;;;;;;;5074149;28;20405;-85
2022/05/26 08:04:09;;;;;;;24.97;23.17;;;;;;;;;;5073808;28;20482;-85
2022/05/26 08:06:37;;;;;;;25.53;23.60;;;;;;;;;;5073711;28;20413;-85
2022/05/26 08:09:06;;;;;;;24.37;22.70;;;;;;;;;;5073903;28;20434;-84
2022/05/26 08:11:33;;;;;;;24.23;22.80;;;;;;;;;;5073824;28;20409;-84
2022/05/26 08:14:01;;;;;;;24.20;22.50;;;;;;;;;;5073772;28;20405;-85
2022/05/26 08:16:28;;;;;;;25.93;24.23;;;;;;;;;;5073773;28;20432;-85
2022/05/26 08:18:55;;;;;;;24.10;22.40;;;;;;;;;;5073641;28;20435;-85
2022/05/26 08:21:23;;;;;;;26.07;24.27;;;;;;;;;;5073396;28;20456;-85
2022/05/26 08:23:52;;;;;;;24.87;23.03;;;;;;;;;;5073663;28;20814;-85
2022/05/26 08:26:21;;;;;;;26.57;24.70;;;;;;;;;;5073605;28;20782;-84
2022/05/26 08:28:49;;;;;;;25.83;24.00;;;;;;;;;;5073544;28;20435;-85
2022/05/26 08:31:16;;;;;;;25.27;23.50;;;;;;;;;;5073505;28;20518;-85
2022/05/26 08:33:44;;;;;;;25.03;22.83;;;;;;;;;;5073443;28;20422;-85
2022/05/26 08:36:14;;;;;;;25.80;23.77;;;;;;;;;;5055532;28;20524;-85
2022/05/26 08:38:43;;;;;;;24.83;23.33;;;;;;;;;;5056117;28;20438;-84
2022/05/26 08:41:16;;;;;;;26.27;24.13;;;;;;;;;;5073068;28;20471;-84
2022/05/26 08:43:46;;;;;;;25.63;24.00;;;;;;;;;;5073427;28;20446;-84
2022/05/26 08:46:15;;;;;;;25.93;24.23;;;;;;;;;;5073294;28;20421;-85
2022/05/26 08:49:00;;;;;;;24.83;23.13;;;;;;;;;;5055268;28;20454;-84
2022/05/26 08:51:35;;;;;;;23.17;21.87;;;;;;;;;;5073345;28;20439;-84
2022/05/26 08:54:03;;;;;;;25.43;23.73;;;;;;;;;;5073373;28;20827;-84
2022/05/26 08:56:30;;;;;;;25.63;23.93;;;;;;;;;;5073136;28;20410;-84
2022/05/26 08:59:03;;;;;;;24.77;23.27;;;;;;;;;;5073038;28;20471;-84
2022/05/26 09:01:33;;;;;;;25.40;23.70;;;;;;;;;;5058976;28;20464;-85
2022/05/26 09:04:01;;;;;;;26.33;24.47;;;;;;;;;;5077083;28;20464;-84
2022/05/26 09:06:28;;;;;;;25.33;23.60;;;;;;;;;;5076995;28;20926;-85
2022/05/26 09:14:29;;;;;;;24.00;22.60;;;;;;;;;;5077357;28;20958;-85
2022/05/26 09:16:58;;;;;;;24.93;22.83;;;;;;;;;;5077453;28;20438;-85
2022/05/26 09:19:26;;;;;;;25.67;23.77;;;;;;;;;;5077154;28;20405;-85
2022/05/26 09:21:55;;;;;;;23.50;21.97;;;;;;;;;;5077104;28;20413;-85
2022/05/26 09:24:26;;;;;;;25.20;23.13;;;;;;;;;;5076975;28;20431;-85
2022/05/26 09:26:55;;;;;;;24.77;23.13;;;;;;;;;;5077096;28;20442;-85
2022/05/26 09:29:25;;;;;;;24.63;22.80;;;;;;;;;;5076850;28;20447;-85
2022/05/26 09:31:54;;;;;;;23.83;22.43;;;;;;;;;;5076748;28;20962;-85
2022/05/26 09:34:22;;;;;;;23.33;21.80;;;;;;;;;;5076827;28;20438;-85
2022/05/26 09:36:51;;;;;;;25.57;24.07;;;;;;;;;;5076502;28;20784;-85
2022/05/26 09:39:23;;;;;;;26.07;24.17;;;;;;;;;;5076563;28;20417;-85
2022/05/26 09:41:53;;;;;;;26.47;24.77;;;;;;;;;;5076604;28;20420;-84
2022/05/26 09:44:25;;;;;;;26.50;24.80;;;;;;;;;;5076194;28;20438;-84
2022/05/26 09:46:56;;;;;;;26.20;24.70;;;;;;;;;;5076456;28;20436;-85
2022/05/26 09:49:25;;;;;;;26.40;24.70;;;;;;;;;;5076276;28;20413;-84
2022/05/26 09:52:04;;;;;;;26.53;24.60;;;;;;;;;;5076247;28;20481;-85
2022/05/26 09:54:33;;;;;;;24.87;23.23;;;;;;;;;;5076157;28;20902;-83
2022/05/26 09:57:12;;;;;;;25.97;24.37;;;;;;;;;;5076436;28;20417;-85
2022/05/26 09:59:40;;;;;;;25.27;23.70;;;;;;;;;;5076473;28;20816;-84
2022/05/26 10:02:12;;;;;;;26.67;24.70;;;;;;;;;;5076185;28;20438;-84
2022/05/26 10:04:52;;;;;;;25.00;23.30;;;;;;;;;;5076129;28;20459;-84
2022/05/26 10:07:22;;;;;;;24.80;23.40;;;;;;;;;;5076276;28;20421;-83
2022/05/26 10:09:53;;;;;;;26.17;24.40;;;;;;;;;;5075934;28;20442;-84
2022/05/26 10:12:25;;;;;;;23.93;22.53;;;;;;;;;;5075381;28;20800;-84
2022/05/26 10:15:03;;;;;;;24.20;22.70;;;;;;;;;;5075880;28;20496;-84
2022/05/26 10:17:38;;;;;;;24.03;22.50;;;;;;;;;;5076125;28;20446;-85
2022/05/26 10:20:15;;;;;;;24.13;22.50;;;;;;;;;;5075958;28;20857;-85
2022/05/26 10:22:47;;;;;;;23.13;21.83;;;;;;;;;;5075770;28;20438;-85
2022/05/26 10:25:25;;;;;;;25.20;23.70;;;;;;;;;;5075370;28;20471;-85
2022/05/26 10:27:58;;;;;;;25.73;23.63;;;;;;;;;;5075598;28;20442;-83
2022/05/26 10:30:27;;;;;;;23.73;22.33;;;;;;;;;;5075427;28;20452;-85
2022/05/26 10:33:02;;;;;;;24.23;22.53;;;;;;;;;;5058614;28;20439;-86
2022/05/26 10:35:37;;;;;;;24.50;23.00;;;;;;;;;;5075987;28;20941;-84
2022/05/26 10:38:10;;;;;;;24.13;22.53;;;;;;;;;;5075424;28;20444;-86
2022/05/26 10:40:40;;;;;;;23.87;22.27;;;;;;;;;;5057766;28;20535;-84
2022/05/26 10:43:11;;;;;;;24.87;23.30;;;;;;;;;;5075669;28;20920;-86
2022/05/26 10:45:40;;;;;;;23.63;22.10;;;;;;;;;;5076005;28;20416;-87
2022/05/26 10:48:11;;;;;;;23.77;22.23;;;;;;;;;;5076096;28;20421;-86
2022/05/26 10:50:40;;;;;;;23.67;22.37;;;;;;;;;;5075768;28;20420;-87
2022/05/26 10:53:13;;;;;;;24.60;23.00;;;;;;;;;;5076316;28;20424;-86
2022/05/26 10:55:43;;;;;;;25.43;23.23;;;;;;;;;;5075722;28;20413;-86
2022/05/26 10:58:16;;;;;;;23.20;21.70;;;;;;;;;;5075628;28;20800;-87
2022/05/26 11:00:44;;;;;;;24.10;22.70;;;;;;;;;;5075582;28;20524;-87
2022/05/26 11:03:14;;;;;;;23.97;22.47;;;;;;;;;;5075285;28;20822;-86
2022/05/26 11:05:45;;;;;;;26.47;24.60;;;;;;;;;;5075713;28;20446;-87
2022/05/26 11:08:27;;;;;;;24.27;22.67;;;;;;;;;;5057344;28;21013;-87
2022/05/26 11:10:55;;;;;;;24.10;22.50;;;;;;;;;;5075499;28;20438;-86
2022/05/26 11:13:25;;;;;;;25.00;23.50;;;;;;;;;;5075663;28;20437;-87
2022/05/26 11:18:51;;;;;;;23.67;22.27;;;;;;;;;;5075106;28;20747;-87
2022/05/26 11:21:20;;;;;;;24.67;23.20;;;;;;;;;;5075362;28;20453;-87
2022/05/26 11:23:47;;;;;;;24.20;22.77;;;;;;;;;;5074101;28;20882;-87
2022/05/26 11:26:21;;;;;;;25.20;23.70;;;;;;;;;;5075313;28;20412;-86
2022/05/26 11:28:51;;;;;;;25.43;23.40;;;;;;;;;;5075074;28;20432;-86
2022/05/26 11:37:01;;;;;;;25.20;23.30;;;;;;;;;;5074319;28;20428;-85
2022/05/26 11:39:31;;;;;;;23.43;21.90;;;;;;;;;;5074435;28;20908;-85
2022/05/26 11:41:59;;;;;;;22.83;21.03;;;;;;;;;;5056128;28;20456;-84
2022/05/26 11:44:47;;;;;;;23.33;22.00;;;;;;;;;;5074349;28;20445;-85
2022/05/26 11:47:25;;;;;;;23.43;22.03;;;;;;;;;;5069605;28;20432;-85
2022/05/26 11:50:22;;;;;;;23.60;22.10;;;;;;;;;;5056003;28;20829;-84
2022/05/26 11:53:01;;;;;;;25.67;24.07;;;;;;;;;;5074089;28;20802;-85
2022/05/26 11:55:33;;;;;;;24.60;22.87;;;;;;;;;;5073836;28;20416;-86
2022/05/26 11:58:16;;;;;;;25.47;23.67;;;;;;;;;;5074132;28;20892;-86
2022/05/26 12:00:44;;;;;;;24.57;22.93;;;;;;;;;;5073949;28;20540;-84
2022/05/26 12:03:28;;;;;;;25.27;23.60;;;;;;;;;;5073186;28;20448;-84
2022/05/26 12:06:12;;;;;;;26.90;24.90;;;;;;;;;;5073305;28;20424;-85
2022/05/26 12:08:43;;;;;;;25.40;23.50;;;;;;;;;;5073781;28;20433;-84
2022/05/26 12:11:12;;;;;;;25.03;23.43;;;;;;;;;;5073718;28;20412;-84
2022/05/26 12:13:40;;;;;;;24.30;22.53;;;;;;;;;;5073229;28;20482;-83
2022/05/26 12:16:10;;;;;;;25.17;23.47;;;;;;;;;;5073543;28;20438;-85
2022/05/26 12:18:42;;;;;;;23.77;22.10;;;;;;;;;;5073193;28;20417;-84
2022/05/26 12:21:15;;;;;;;22.10;20.70;;;;;;;;;;5073335;28;20457;-83
2022/05/26 12:23:43;;;;;;;25.03;23.33;;;;;;;;;;5073256;28;20438;-83
2022/05/26 12:26:29;;;;;;;25.03;23.13;;;;;;;;;;5073264;28;20992;-83
2022/05/26 12:28:57;;;;;;;26.13;24.20;;;;;;;;;;5073365;28;20437;-84
2022/05/26 12:31:24;;;;;;;25.80;24.27;;;;;;;;;;5073540;28;20480;-84
2022/05/26 12:34:09;;;;;;;24.60;22.83;;;;;;;;;;5073018;28;20406;-85
2022/05/26 12:36:57;;;;;;;25.00;23.40;;;;;;;;;;5073598;28;20435;-84
2022/05/26 12:39:43;;;;;;;25.63;23.93;;;;;;;;;;5069606;28;20462;-84
2022/05/26 12:42:17;;;;;;;24.53;23.13;;;;;;;;;;5062824;28;20500;-84
2022/05/26 12:44:59;;;;;;;25.53;23.97;;;;;;;;;;5073345;28;20417;-84
2022/05/26 12:47:40;;;;;;;25.60;23.90;;;;;;;;;;5073324;28;20438;-84
2022/05/26 12:50:08;;;;;;;26.17;24.40;;;;;;;;;;5073335;28;20500;-83
2022/05/26 12:52:37;;;;;;;25.63;24.10;;;;;;;;;;5072909;28;20417;-85
2022/05/26 12:55:22;;;;;;;24.80;23.30;;;;;;;;;;5072729;28;20457;-84
2022/05/26 12:57:53;;;;;;;24.67;23.10;;;;;;;;;;5073367;28;20436;-84
2022/05/26 13:00:24;;;;;;;25.30;23.70;;;;;;;;;;5073213;28;20406;-84
2022/05/26 13:02:53;;;;;;;25.37;23.70;;;;;;;;;;5072948;28;20895;-85
2022/05/26 13:05:21;;;;;;;24.60;22.90;;;;;;;;;;5073098;28;20469;-84
2022/05/26 13:07:50;;;;;;;26.03;24.23;;;;;;;;;;5073083;28;20430;-84
2022/05/26 13:10:19;;;;;;;25.10;23.50;;;;;;;;;;5073089;28;20492;-84
2022/05/26 13:12:47;;;;;;;24.43;22.87;;;;;;;;;;5072740;28;20405;-84
2022/05/26 13:15:23;;;;;;;24.93;23.13;;;;;;;;;;5054957;28;20456;-84
2022/05/26 13:17:51;;;;;;;25.43;23.83;;;;;;;;;;5072974;28;20791;-84
2022/05/26 13:20:26;;;;;;;25.40;23.90;;;;;;;;;;5073084;28;20920;-85
2022/05/26 13:22:53;;;;;;;26.47;24.60;;;;;;;;;;5072437;28;20456;-83
2022/05/26 13:25:25;;;;;;;24.97;23.27;;;;;;;;;;5072879;28;20438;-83
2022/05/26 13:27:54;;;;;;;25.63;24.07;;;;;;;;;;5072546;28;20973;-85
2022/05/26 13:33:11;;;;;;;24.50;23.00;;;;;;;;;;5072506;28;21113;-83
2022/05/26 13:35:43;;;;;;;27.43;25.53;;;;;;;;;;5072693;28;20433;-86
2022/05/26 13:38:29;;;;;;;24.83;23.27;;;;;;;;;;5073219;28;20409;-86
2022/05/26 13:40:57;;;;;;;26.93;25.23;;;;;;;;;;5073378;28;20416;-87
2022/05/26 13:43:25;;;;;;;27.27;25.27;;;;;;;;;;5073456;28;20417;-86
2022/05/26 13:45:55;;;;;;;26.30;24.60;;;;;;;;;;5074334;28;20903;-89
2022/05/26 13:48:28;;;;;;;24.70;23.00;;;;;;;;;;5076963;28;20461;-89
2022/05/26 13:50:58;;;;;;;26.43;24.33;;;;;;;;;;5077180;28;20829;-91
2022/05/26 13:53:25;;;;;;;24.77;23.17;;;;;;;;;;5077594;28;20441;-93
2022/05/26 13:55:54;;;;;;;26.23;24.53;;;;;;;;;;5059770;28;20421;-95
2022/05/26 13:58:22;;;;;;;25.07;23.17;;;;;;;;;;5077276;28;20438;-94
2022/05/26 14:00:58;;;;;;;25.63;23.93;;;;;;;;;;5076945;28;20409;-95
2022/05/26 14:03:28;;;;;;;25.50;23.60;;;;;;;;;;5076731;28;20490;-95
2022/05/26 14:06:00;;;;;;;25.97;24.00;;;;;;;;;;5077827;28;20413;-96
2022/05/26 14:08:28;;;;;;;24.90;23.27;;;;;;;;;;5082546;28;20405;-96
2022/05/26 14:10:56;;;;;;;26.40;24.27;;;;;;;;;;5051748;28;20929;-96
2022/05/26 14:13:25;;;;;;;26.47;24.43;;;;;;;;;;5082135;28;20436;-96
2022/05/26 14:15:54;;;;;;;26.43;24.40;;;;;;;;;;5080698;28;20810;-96
2022/05/26 14:18:36;;;;;;;25.37;23.77;;;;;;;;;;5081018;28;20437;-92
2022/05/26 14:21:05;;;;;;;26.30;24.57;;;;;;;;;;5076950;28;20442;-93
2022/05/26 14:23:34;;;;;;;24.67;23.10;;;;;;;;;;5076629;28;20440;-93
2022/05/26 14:26:04;;;;;;;26.27;24.40;;;;;;;;;;5076683;28;20419;-93
2022/05/26 14:28:33;;;;;;;26.80;25.10;;;;;;;;;;5076993;28;20430;-91
2022/05/26 14:31:03;;;;;;;25.47;23.70;;;;;;;;;;5076235;28;20549;-90
2022/05/26 14:33:33;;;;;;;25.57;24.03;;;;;;;;;;5076203;28;20417;-91
2022/05/26 14:36:01;;;;;;;24.60;23.10;;;;;;;;;;5076522;28;20908;-93
2022/05/26 14:38:28;;;;;;;26.97;25.17;;;;;;;;;;5076375;28;20491;-92
2022/05/26 14:40:56;;;;;;;24.90;23.27;;;;;;;;;;5058983;28;20466;-90
2022/05/26 14:43:26;;;;;;;26.10;24.37;;;;;;;;;;5076338;28;20467;-92
2022/05/26 14:45:54;;;;;;;25.30;23.60;;;;;;;;;;5076695;28;20497;-91
2022/05/26 14:48:22;;;;;;;25.03;23.43;;;;;;;;;;5076021;28;20475;-92
2022/05/26 14:50:50;;;;;;;24.37;22.77;;;;;;;;;;5076055;28;20444;-92
2022/05/26 14:55:26;;;;;;;26.80;24.90;;;;;;;;;;5076243;28;20457;-91
2022/05/26 14:56:04;;;;;;;26.57;24.97;;;;;;;;;;5061534;28;20480;-93
2022/05/26 14:58:32;;;;;;;26.13;24.43;;;;;;;;;;5074871;28;20942;-94
2022/05/26 15:01:00;;;;;;;25.20;23.30;;;;;;;;;;5076107;28;20443;-92
2022/05/26 15:03:27;;;;;;;25.87;24.20;;;;;;;;;;5075587;28;20644;-92
2022/05/26 15:05:58;;;;;;;24.93;23.20;;;;;;;;;;5075726;28;20770;-92
2022/05/26 15:08:28;;;;;;;24.90;23.20;;;;;;;;;;5075877;28;20824;-92
2022/05/26 15:10:56;;;;;;;24.53;22.93;;;;;;;;;;5075647;28;20461;-91